<?xml version="1.0" encoding="UTF-8" standalone="no" ?>
<gpx xmlns="http://www.topografix.com/GPX/1/1" xmlns:xsi="http://www.w3.org/2001/XMLSchema-instance" xsi:schemaLocation="http://www.topografix.com/GPX/1/1 http://www.topografix.com/GPX/1/1/gpx.xsd" version="1.1" creator="VisuGPX - https://www.visugpx.com">
  <metadata>
    <name>Condécourt-Sagy-Gouzangrez-Commeny-Théméricourt-14456403</name>
    <desc><![CDATA[fait]]></desc>
  </metadata>
  <trk>
    <name><![CDATA[Condécourt-Sagy-Gouzangrez-Commeny-Théméricourt-14456403]]></name>
    <trkseg>
      <trkpt lat="49.03995" lon="1.94232">
        <ele>44</ele>
        <time>2023-01-10T07:54:18Z</time>
      </trkpt>
      <trkpt lat="49.0398" lon="1.94217">
        <ele>45</ele>
        <time>2023-01-10T07:54:42Z</time>
      </trkpt>
      <trkpt lat="49.03982" lon="1.94198">
        <ele>45</ele>
        <time>2023-01-10T07:54:59Z</time>
      </trkpt>
      <trkpt lat="49.03984" lon="1.94187">
        <ele>46</ele>
        <time>2023-01-10T07:55:09Z</time>
      </trkpt>
      <trkpt lat="49.03997" lon="1.94147">
        <ele>48</ele>
        <time>2023-01-10T07:55:48Z</time>
      </trkpt>
      <trkpt lat="49.04005" lon="1.94136">
        <ele>49</ele>
        <time>2023-01-10T07:56:02Z</time>
      </trkpt>
      <trkpt lat="49.0402" lon="1.94133">
        <ele>49</ele>
        <time>2023-01-10T07:56:22Z</time>
      </trkpt>
      <trkpt lat="49.04029" lon="1.94128">
        <ele>50</ele>
        <time>2023-01-10T07:56:35Z</time>
      </trkpt>
      <trkpt lat="49.04056" lon="1.94142">
        <ele>50</ele>
        <time>2023-01-10T07:57:13Z</time>
      </trkpt>
      <trkpt lat="49.04067" lon="1.94162">
        <ele>49</ele>
        <time>2023-01-10T07:57:36Z</time>
      </trkpt>
      <trkpt lat="49.04085" lon="1.942">
        <ele>47</ele>
        <time>2023-01-10T07:58:17Z</time>
      </trkpt>
      <trkpt lat="49.04094" lon="1.94221">
        <ele>47</ele>
        <time>2023-01-10T07:58:39Z</time>
      </trkpt>
      <trkpt lat="49.04104" lon="1.94238">
        <ele>46</ele>
        <time>2023-01-10T07:58:59Z</time>
      </trkpt>
      <trkpt lat="49.04133" lon="1.94273">
        <ele>46</ele>
        <time>2023-01-10T07:59:48Z</time>
      </trkpt>
      <trkpt lat="49.04168" lon="1.943">
        <ele>45</ele>
        <time>2023-01-10T08:00:41Z</time>
      </trkpt>
      <trkpt lat="49.04186" lon="1.94304">
        <ele>45</ele>
        <time>2023-01-10T08:01:05Z</time>
      </trkpt>
      <trkpt lat="49.04198" lon="1.94302">
        <ele>46</ele>
        <time>2023-01-10T08:01:21Z</time>
      </trkpt>
      <trkpt lat="49.04222" lon="1.94289">
        <ele>47</ele>
        <time>2023-01-10T08:01:55Z</time>
      </trkpt>
      <trkpt lat="49.0424" lon="1.94282">
        <ele>47</ele>
        <time>2023-01-10T08:02:20Z</time>
      </trkpt>
      <trkpt lat="49.04295" lon="1.94277">
        <ele>46</ele>
        <time>2023-01-10T08:03:33Z</time>
      </trkpt>
      <trkpt lat="49.04333" lon="1.94277">
        <ele>46</ele>
        <time>2023-01-10T08:04:24Z</time>
      </trkpt>
      <trkpt lat="49.04349" lon="1.94283">
        <ele>46</ele>
        <time>2023-01-10T08:04:46Z</time>
      </trkpt>
      <trkpt lat="49.04369" lon="1.94295">
        <ele>47</ele>
        <time>2023-01-10T08:05:15Z</time>
      </trkpt>
      <trkpt lat="49.0437" lon="1.94319">
        <ele>47</ele>
        <time>2023-01-10T08:05:36Z</time>
      </trkpt>
      <trkpt lat="49.04409" lon="1.94474">
        <ele>46</ele>
        <time>2023-01-10T08:08:01Z</time>
      </trkpt>
      <trkpt lat="49.0446" lon="1.94663">
        <ele>47</ele>
        <time>2023-01-10T08:11:00Z</time>
      </trkpt>
      <trkpt lat="49.04502" lon="1.94823">
        <ele>46</ele>
        <time>2023-01-10T08:13:31Z</time>
      </trkpt>
      <trkpt lat="49.04577" lon="1.94858">
        <ele>49</ele>
        <time>2023-01-10T08:15:15Z</time>
      </trkpt>
      <trkpt lat="49.04618" lon="1.9489">
        <ele>48</ele>
        <time>2023-01-10T08:16:17Z</time>
      </trkpt>
      <trkpt lat="49.04691" lon="1.94975">
        <ele>45</ele>
        <time>2023-01-10T08:18:19Z</time>
      </trkpt>
      <trkpt lat="49.04719" lon="1.95016">
        <ele>44</ele>
        <time>2023-01-10T08:19:11Z</time>
      </trkpt>
      <trkpt lat="49.04715" lon="1.95039">
        <ele>44</ele>
        <time>2023-01-10T08:19:32Z</time>
      </trkpt>
      <trkpt lat="49.04686" lon="1.95105">
        <ele>46</ele>
        <time>2023-01-10T08:20:41Z</time>
      </trkpt>
      <trkpt lat="49.04707" lon="1.95101">
        <ele>45</ele>
        <time>2023-01-10T08:21:10Z</time>
      </trkpt>
      <trkpt lat="49.04734" lon="1.95103">
        <ele>44</ele>
        <time>2023-01-10T08:21:46Z</time>
      </trkpt>
      <trkpt lat="49.04767" lon="1.95111">
        <ele>44</ele>
        <time>2023-01-10T08:22:30Z</time>
      </trkpt>
      <trkpt lat="49.04792" lon="1.95119">
        <ele>45</ele>
        <time>2023-01-10T08:23:04Z</time>
      </trkpt>
      <trkpt lat="49.0485" lon="1.95088">
        <ele>46</ele>
        <time>2023-01-10T08:24:26Z</time>
      </trkpt>
      <trkpt lat="49.04864" lon="1.95065">
        <ele>45</ele>
        <time>2023-01-10T08:24:54Z</time>
      </trkpt>
      <trkpt lat="49.0493" lon="1.94985">
        <ele>46</ele>
        <time>2023-01-10T08:26:46Z</time>
      </trkpt>
      <trkpt lat="49.04956" lon="1.94948">
        <ele>47</ele>
        <time>2023-01-10T08:27:34Z</time>
      </trkpt>
      <trkpt lat="49.04983" lon="1.94918">
        <ele>47</ele>
        <time>2023-01-10T08:28:18Z</time>
      </trkpt>
      <trkpt lat="49.05005" lon="1.9495">
        <ele>47</ele>
        <time>2023-01-10T08:28:59Z</time>
      </trkpt>
      <trkpt lat="49.05038" lon="1.94989">
        <ele>47</ele>
        <time>2023-01-10T08:29:55Z</time>
      </trkpt>
      <trkpt lat="49.05031" lon="1.95021">
        <ele>47</ele>
        <time>2023-01-10T08:30:24Z</time>
      </trkpt>
      <trkpt lat="49.05023" lon="1.95065">
        <ele>48</ele>
        <time>2023-01-10T08:31:04Z</time>
      </trkpt>
      <trkpt lat="49.05" lon="1.95109">
        <ele>47</ele>
        <time>2023-01-10T08:31:53Z</time>
      </trkpt>
      <trkpt lat="49.0497" lon="1.95228">
        <ele>50</ele>
        <time>2023-01-10T08:33:45Z</time>
      </trkpt>
      <trkpt lat="49.04911" lon="1.95248">
        <ele>51</ele>
        <time>2023-01-10T08:35:05Z</time>
      </trkpt>
      <trkpt lat="49.04932" lon="1.95346">
        <ele>53</ele>
        <time>2023-01-10T08:36:36Z</time>
      </trkpt>
      <trkpt lat="49.0494" lon="1.95374">
        <ele>54</ele>
        <time>2023-01-10T08:37:02Z</time>
      </trkpt>
      <trkpt lat="49.04977" lon="1.95489">
        <ele>54</ele>
        <time>2023-01-10T08:38:54Z</time>
      </trkpt>
      <trkpt lat="49.05022" lon="1.95617">
        <ele>54</ele>
        <time>2023-01-10T08:41:01Z</time>
      </trkpt>
      <trkpt lat="49.05056" lon="1.95638">
        <ele>55</ele>
        <time>2023-01-10T08:41:50Z</time>
      </trkpt>
      <trkpt lat="49.05113" lon="1.95665">
        <ele>57</ele>
        <time>2023-01-10T08:43:10Z</time>
      </trkpt>
      <trkpt lat="49.05167" lon="1.95687">
        <ele>57</ele>
        <time>2023-01-10T08:44:25Z</time>
      </trkpt>
      <trkpt lat="49.05207" lon="1.95712">
        <ele>59</ele>
        <time>2023-01-10T08:45:22Z</time>
      </trkpt>
      <trkpt lat="49.05261" lon="1.95748">
        <ele>61</ele>
        <time>2023-01-10T08:46:41Z</time>
      </trkpt>
      <trkpt lat="49.05291" lon="1.95732">
        <ele>62</ele>
        <time>2023-01-10T08:47:23Z</time>
      </trkpt>
      <trkpt lat="49.05344" lon="1.95695">
        <ele>62</ele>
        <time>2023-01-10T08:48:41Z</time>
      </trkpt>
      <trkpt lat="49.05367" lon="1.95679">
        <ele>63</ele>
        <time>2023-01-10T08:49:15Z</time>
      </trkpt>
      <trkpt lat="49.05384" lon="1.95666">
        <ele>63</ele>
        <time>2023-01-10T08:49:40Z</time>
      </trkpt>
      <trkpt lat="49.05422" lon="1.95613">
        <ele>65</ele>
        <time>2023-01-10T08:50:49Z</time>
      </trkpt>
      <trkpt lat="49.05452" lon="1.95576">
        <ele>66</ele>
        <time>2023-01-10T08:51:40Z</time>
      </trkpt>
      <trkpt lat="49.05487" lon="1.95527">
        <ele>65</ele>
        <time>2023-01-10T08:52:44Z</time>
      </trkpt>
      <trkpt lat="49.05558" lon="1.95626">
        <ele>69</ele>
        <time>2023-01-10T08:54:52Z</time>
      </trkpt>
      <trkpt lat="49.05633" lon="1.95677">
        <ele>72</ele>
        <time>2023-01-10T08:56:42Z</time>
      </trkpt>
      <trkpt lat="49.05734" lon="1.95692">
        <ele>79</ele>
        <time>2023-01-10T08:58:57Z</time>
      </trkpt>
      <trkpt lat="49.05784" lon="1.9573">
        <ele>82</ele>
        <time>2023-01-10T09:00:12Z</time>
      </trkpt>
      <trkpt lat="49.05812" lon="1.95803">
        <ele>86</ele>
        <time>2023-01-10T09:01:26Z</time>
      </trkpt>
      <trkpt lat="49.0583" lon="1.95862">
        <ele>89</ele>
        <time>2023-01-10T09:02:22Z</time>
      </trkpt>
      <trkpt lat="49.05903" lon="1.95923">
        <ele>97</ele>
        <time>2023-01-10T09:04:14Z</time>
      </trkpt>
      <trkpt lat="49.05935" lon="1.95987">
        <ele>102</ele>
        <time>2023-01-10T09:05:24Z</time>
      </trkpt>
      <trkpt lat="49.0595" lon="1.96051">
        <ele>105</ele>
        <time>2023-01-10T09:06:23Z</time>
      </trkpt>
      <trkpt lat="49.0596" lon="1.96146">
        <ele>108</ele>
        <time>2023-01-10T09:07:47Z</time>
      </trkpt>
      <trkpt lat="49.05983" lon="1.96205">
        <ele>110</ele>
        <time>2023-01-10T09:08:48Z</time>
      </trkpt>
      <trkpt lat="49.06004" lon="1.9623">
        <ele>111</ele>
        <time>2023-01-10T09:09:23Z</time>
      </trkpt>
      <trkpt lat="49.06056" lon="1.9622">
        <ele>112</ele>
        <time>2023-01-10T09:10:33Z</time>
      </trkpt>
      <trkpt lat="49.06123" lon="1.96193">
        <ele>113</ele>
        <time>2023-01-10T09:12:05Z</time>
      </trkpt>
      <trkpt lat="49.06094" lon="1.96104">
        <ele>112</ele>
        <time>2023-01-10T09:13:32Z</time>
      </trkpt>
      <trkpt lat="49.06097" lon="1.96071">
        <ele>113</ele>
        <time>2023-01-10T09:14:02Z</time>
      </trkpt>
      <trkpt lat="49.06126" lon="1.96007">
        <ele>115</ele>
        <time>2023-01-10T09:15:10Z</time>
      </trkpt>
      <trkpt lat="49.06159" lon="1.95915">
        <ele>116</ele>
        <time>2023-01-10T09:16:41Z</time>
      </trkpt>
      <trkpt lat="49.06182" lon="1.95846">
        <ele>117</ele>
        <time>2023-01-10T09:17:49Z</time>
      </trkpt>
      <trkpt lat="49.06206" lon="1.95781">
        <ele>118</ele>
        <time>2023-01-10T09:18:54Z</time>
      </trkpt>
      <trkpt lat="49.06245" lon="1.9568">
        <ele>120</ele>
        <time>2023-01-10T09:20:37Z</time>
      </trkpt>
      <trkpt lat="49.06268" lon="1.95625">
        <ele>120</ele>
        <time>2023-01-10T09:21:34Z</time>
      </trkpt>
      <trkpt lat="49.06293" lon="1.95569">
        <ele>120</ele>
        <time>2023-01-10T09:22:33Z</time>
      </trkpt>
      <trkpt lat="49.06318" lon="1.95522">
        <ele>121</ele>
        <time>2023-01-10T09:23:26Z</time>
      </trkpt>
      <trkpt lat="49.06369" lon="1.95444">
        <ele>121</ele>
        <time>2023-01-10T09:25:02Z</time>
      </trkpt>
      <trkpt lat="49.06401" lon="1.95392">
        <ele>121</ele>
        <time>2023-01-10T09:26:05Z</time>
      </trkpt>
      <trkpt lat="49.06433" lon="1.9535">
        <ele>120</ele>
        <time>2023-01-10T09:27:01Z</time>
      </trkpt>
      <trkpt lat="49.06449" lon="1.95318">
        <ele>119</ele>
        <time>2023-01-10T09:27:36Z</time>
      </trkpt>
      <trkpt lat="49.06477" lon="1.95256">
        <ele>118</ele>
        <time>2023-01-10T09:28:42Z</time>
      </trkpt>
      <trkpt lat="49.06488" lon="1.95214">
        <ele>115</ele>
        <time>2023-01-10T09:29:22Z</time>
      </trkpt>
      <trkpt lat="49.06509" lon="1.95189">
        <ele>113</ele>
        <time>2023-01-10T09:29:57Z</time>
      </trkpt>
      <trkpt lat="49.06557" lon="1.95166">
        <ele>111</ele>
        <time>2023-01-10T09:31:04Z</time>
      </trkpt>
      <trkpt lat="49.06578" lon="1.95149">
        <ele>111</ele>
        <time>2023-01-10T09:31:36Z</time>
      </trkpt>
      <trkpt lat="49.06635" lon="1.95056">
        <ele>112</ele>
        <time>2023-01-10T09:33:27Z</time>
      </trkpt>
      <trkpt lat="49.06682" lon="1.94967">
        <ele>113</ele>
        <time>2023-01-10T09:35:07Z</time>
      </trkpt>
      <trkpt lat="49.06715" lon="1.94899">
        <ele>113</ele>
        <time>2023-01-10T09:36:21Z</time>
      </trkpt>
      <trkpt lat="49.06733" lon="1.94857">
        <ele>114</ele>
        <time>2023-01-10T09:37:05Z</time>
      </trkpt>
      <trkpt lat="49.06754" lon="1.94809">
        <ele>115</ele>
        <time>2023-01-10T09:37:56Z</time>
      </trkpt>
      <trkpt lat="49.06774" lon="1.94773">
        <ele>115</ele>
        <time>2023-01-10T09:38:37Z</time>
      </trkpt>
      <trkpt lat="49.06928" lon="1.94585">
        <ele>112</ele>
        <time>2023-01-10T09:43:00Z</time>
      </trkpt>
      <trkpt lat="49.07004" lon="1.94486">
        <ele>114</ele>
        <time>2023-01-10T09:45:13Z</time>
      </trkpt>
      <trkpt lat="49.07016" lon="1.94452">
        <ele>115</ele>
        <time>2023-01-10T09:45:47Z</time>
      </trkpt>
      <trkpt lat="49.07074" lon="1.94223">
        <ele>120</ele>
        <time>2023-01-10T09:49:22Z</time>
      </trkpt>
      <trkpt lat="49.07099" lon="1.94181">
        <ele>122</ele>
        <time>2023-01-10T09:50:11Z</time>
      </trkpt>
      <trkpt lat="49.07148" lon="1.94141">
        <ele>126</ele>
        <time>2023-01-10T09:51:25Z</time>
      </trkpt>
      <trkpt lat="49.07184" lon="1.94124">
        <ele>128</ele>
        <time>2023-01-10T09:52:16Z</time>
      </trkpt>
      <trkpt lat="49.07213" lon="1.94108">
        <ele>129</ele>
        <time>2023-01-10T09:52:57Z</time>
      </trkpt>
      <trkpt lat="49.07361" lon="1.93997">
        <ele>127</ele>
        <time>2023-01-10T09:56:37Z</time>
      </trkpt>
      <trkpt lat="49.07462" lon="1.93922">
        <ele>118</ele>
        <time>2023-01-10T09:59:07Z</time>
      </trkpt>
      <trkpt lat="49.0753" lon="1.93878">
        <ele>116</ele>
        <time>2023-01-10T10:00:45Z</time>
      </trkpt>
      <trkpt lat="49.07587" lon="1.93831">
        <ele>116</ele>
        <time>2023-01-10T10:02:12Z</time>
      </trkpt>
      <trkpt lat="49.07672" lon="1.93767">
        <ele>115</ele>
        <time>2023-01-10T10:04:18Z</time>
      </trkpt>
      <trkpt lat="49.07672" lon="1.93738">
        <ele>114</ele>
        <time>2023-01-10T10:04:44Z</time>
      </trkpt>
      <trkpt lat="49.07697" lon="1.93708">
        <ele>115</ele>
        <time>2023-01-10T10:05:26Z</time>
      </trkpt>
      <trkpt lat="49.07738" lon="1.93556">
        <ele>116</ele>
        <time>2023-01-10T10:07:50Z</time>
      </trkpt>
      <trkpt lat="49.07791" lon="1.93524">
        <ele>121</ele>
        <time>2023-01-10T10:09:06Z</time>
      </trkpt>
      <trkpt lat="49.07812" lon="1.93485">
        <ele>123</ele>
        <time>2023-01-10T10:09:50Z</time>
      </trkpt>
      <trkpt lat="49.07852" lon="1.93427">
        <ele>125</ele>
        <time>2023-01-10T10:11:04Z</time>
      </trkpt>
      <trkpt lat="49.07864" lon="1.9335">
        <ele>123</ele>
        <time>2023-01-10T10:12:13Z</time>
      </trkpt>
      <trkpt lat="49.07874" lon="1.93279">
        <ele>119</ele>
        <time>2023-01-10T10:13:16Z</time>
      </trkpt>
      <trkpt lat="49.07886" lon="1.9326">
        <ele>118</ele>
        <time>2023-01-10T10:13:39Z</time>
      </trkpt>
      <trkpt lat="49.07953" lon="1.93249">
        <ele>119</ele>
        <time>2023-01-10T10:15:09Z</time>
      </trkpt>
      <trkpt lat="49.07999" lon="1.9321">
        <ele>115</ele>
        <time>2023-01-10T10:16:20Z</time>
      </trkpt>
      <trkpt lat="49.08098" lon="1.93137">
        <ele>113</ele>
        <time>2023-01-10T10:18:46Z</time>
      </trkpt>
      <trkpt lat="49.08134" lon="1.93237">
        <ele>120</ele>
        <time>2023-01-10T10:20:26Z</time>
      </trkpt>
      <trkpt lat="49.08143" lon="1.93417">
        <ele>126</ele>
        <time>2023-01-10T10:23:04Z</time>
      </trkpt>
      <trkpt lat="49.08151" lon="1.93593">
        <ele>127</ele>
        <time>2023-01-10T10:25:38Z</time>
      </trkpt>
      <trkpt lat="49.08188" lon="1.93949">
        <ele>124</ele>
        <time>2023-01-10T10:30:53Z</time>
      </trkpt>
      <trkpt lat="49.08244" lon="1.94559">
        <ele>110</ele>
        <time>2023-01-10T10:39:51Z</time>
      </trkpt>
      <trkpt lat="49.08264" lon="1.94743">
        <ele>106</ele>
        <time>2023-01-10T10:42:34Z</time>
      </trkpt>
      <trkpt lat="49.08261" lon="1.94941">
        <ele>104</ele>
        <time>2023-01-10T10:45:28Z</time>
      </trkpt>
      <trkpt lat="49.08351" lon="1.95134">
        <ele>104</ele>
        <time>2023-01-10T10:48:55Z</time>
      </trkpt>
      <trkpt lat="49.08438" lon="1.95327">
        <ele>104</ele>
        <time>2023-01-10T10:52:19Z</time>
      </trkpt>
      <trkpt lat="49.08562" lon="1.95567">
        <ele>102</ele>
        <time>2023-01-10T10:56:47Z</time>
      </trkpt>
      <trkpt lat="49.08626" lon="1.95748">
        <ele>102</ele>
        <time>2023-01-10T10:59:46Z</time>
      </trkpt>
      <trkpt lat="49.08708" lon="1.96293">
        <ele>101</ele>
        <time>2023-01-10T11:07:55Z</time>
      </trkpt>
      <trkpt lat="49.08829" lon="1.96057">
        <ele>104</ele>
        <time>2023-01-10T11:12:17Z</time>
      </trkpt>
      <trkpt lat="49.08907" lon="1.95829">
        <ele>95</ele>
        <time>2023-01-10T11:16:02Z</time>
      </trkpt>
      <trkpt lat="49.08893" lon="1.95743">
        <ele>93</ele>
        <time>2023-01-10T11:17:19Z</time>
      </trkpt>
      <trkpt lat="49.08812" lon="1.9564">
        <ele>93</ele>
        <time>2023-01-10T11:19:40Z</time>
      </trkpt>
      <trkpt lat="49.08865" lon="1.95597">
        <ele>93</ele>
        <time>2023-01-10T11:21:00Z</time>
      </trkpt>
      <trkpt lat="49.08916" lon="1.95524">
        <ele>93</ele>
        <time>2023-01-10T11:22:33Z</time>
      </trkpt>
      <trkpt lat="49.08994" lon="1.94876">
        <ele>99</ele>
        <time>2023-01-10T11:32:09Z</time>
      </trkpt>
      <trkpt lat="49.09076" lon="1.94821">
        <ele>93</ele>
        <time>2023-01-10T11:34:09Z</time>
      </trkpt>
      <trkpt lat="49.09143" lon="1.94881">
        <ele>93</ele>
        <time>2023-01-10T11:35:52Z</time>
      </trkpt>
      <trkpt lat="49.09273" lon="1.94889">
        <ele>99</ele>
        <time>2023-01-10T11:38:46Z</time>
      </trkpt>
      <trkpt lat="49.09357" lon="1.94803">
        <ele>106</ele>
        <time>2023-01-10T11:41:01Z</time>
      </trkpt>
      <trkpt lat="49.09413" lon="1.94662">
        <ele>110</ele>
        <time>2023-01-10T11:43:25Z</time>
      </trkpt>
      <trkpt lat="49.09542" lon="1.94357">
        <ele>111</ele>
        <time>2023-01-10T11:48:42Z</time>
      </trkpt>
      <trkpt lat="49.09784" lon="1.93778">
        <ele>107</ele>
        <time>2023-01-10T11:58:42Z</time>
      </trkpt>
      <trkpt lat="49.1027" lon="1.92606">
        <ele>102</ele>
        <time>2023-01-10T12:18:54Z</time>
      </trkpt>
      <trkpt lat="49.10495" lon="1.92061">
        <ele>107</ele>
        <time>2023-01-10T12:28:17Z</time>
      </trkpt>
      <trkpt lat="49.10697" lon="1.91615">
        <ele>103</ele>
        <time>2023-01-10T12:36:11Z</time>
      </trkpt>
      <trkpt lat="49.10897" lon="1.91151">
        <ele>105</ele>
        <time>2023-01-10T12:44:16Z</time>
      </trkpt>
      <trkpt lat="49.10984" lon="1.90933">
        <ele>109</ele>
        <time>2023-01-10T12:48:00Z</time>
      </trkpt>
      <trkpt lat="49.11124" lon="1.90585">
        <ele>109</ele>
        <time>2023-01-10T12:53:56Z</time>
      </trkpt>
      <trkpt lat="49.11231" lon="1.90645">
        <ele>112</ele>
        <time>2023-01-10T12:56:28Z</time>
      </trkpt>
      <trkpt lat="49.11346" lon="1.90761">
        <ele>112</ele>
        <time>2023-01-10T12:59:32Z</time>
      </trkpt>
      <trkpt lat="49.11442" lon="1.90795">
        <ele>110</ele>
        <time>2023-01-10T13:01:44Z</time>
      </trkpt>
      <trkpt lat="49.11473" lon="1.90752">
        <ele>109</ele>
        <time>2023-01-10T13:02:40Z</time>
      </trkpt>
      <trkpt lat="49.11523" lon="1.90727">
        <ele>109</ele>
        <time>2023-01-10T13:03:50Z</time>
      </trkpt>
      <trkpt lat="49.11619" lon="1.90692">
        <ele>106</ele>
        <time>2023-01-10T13:06:02Z</time>
      </trkpt>
      <trkpt lat="49.11709" lon="1.90559">
        <ele>103</ele>
        <time>2023-01-10T13:08:49Z</time>
      </trkpt>
      <trkpt lat="49.11787" lon="1.90396">
        <ele>105</ele>
        <time>2023-01-10T13:11:45Z</time>
      </trkpt>
      <trkpt lat="49.11857" lon="1.90306">
        <ele>105</ele>
        <time>2023-01-10T13:13:47Z</time>
      </trkpt>
      <trkpt lat="49.11984" lon="1.90173">
        <ele>107</ele>
        <time>2023-01-10T13:17:13Z</time>
      </trkpt>
      <trkpt lat="49.12197" lon="1.89877">
        <ele>107</ele>
        <time>2023-01-10T13:23:37Z</time>
      </trkpt>
      <trkpt lat="49.12281" lon="1.89748">
        <ele>103</ele>
        <time>2023-01-10T13:26:16Z</time>
      </trkpt>
      <trkpt lat="49.12363" lon="1.89645">
        <ele>101</ele>
        <time>2023-01-10T13:28:37Z</time>
      </trkpt>
      <trkpt lat="49.12419" lon="1.89491">
        <ele>102</ele>
        <time>2023-01-10T13:31:11Z</time>
      </trkpt>
      <trkpt lat="49.12447" lon="1.8919">
        <ele>105</ele>
        <time>2023-01-10T13:35:37Z</time>
      </trkpt>
      <trkpt lat="49.12574" lon="1.89182">
        <ele>106</ele>
        <time>2023-01-10T13:38:26Z</time>
      </trkpt>
      <trkpt lat="49.12649" lon="1.89079">
        <ele>108</ele>
        <time>2023-01-10T13:40:41Z</time>
      </trkpt>
      <trkpt lat="49.12706" lon="1.89036">
        <ele>109</ele>
        <time>2023-01-10T13:42:06Z</time>
      </trkpt>
      <trkpt lat="49.12798" lon="1.8898">
        <ele>109</ele>
        <time>2023-01-10T13:44:18Z</time>
      </trkpt>
      <trkpt lat="49.1286" lon="1.88894">
        <ele>109</ele>
        <time>2023-01-10T13:46:10Z</time>
      </trkpt>
      <trkpt lat="49.12866" lon="1.8883">
        <ele>109</ele>
        <time>2023-01-10T13:47:06Z</time>
      </trkpt>
      <trkpt lat="49.12868" lon="1.88654">
        <ele>110</ele>
        <time>2023-01-10T13:49:40Z</time>
      </trkpt>
      <trkpt lat="49.12882" lon="1.88499">
        <ele>110</ele>
        <time>2023-01-10T13:51:56Z</time>
      </trkpt>
      <trkpt lat="49.12899" lon="1.88328">
        <ele>110</ele>
        <time>2023-01-10T13:54:28Z</time>
      </trkpt>
      <trkpt lat="49.12958" lon="1.88164">
        <ele>111</ele>
        <time>2023-01-10T13:57:11Z</time>
      </trkpt>
      <trkpt lat="49.13054" lon="1.88019">
        <ele>112</ele>
        <time>2023-01-10T14:00:11Z</time>
      </trkpt>
      <trkpt lat="49.13127" lon="1.87898">
        <ele>112</ele>
        <time>2023-01-10T14:02:35Z</time>
      </trkpt>
      <trkpt lat="49.13194" lon="1.87791">
        <ele>110</ele>
        <time>2023-01-10T14:04:44Z</time>
      </trkpt>
      <trkpt lat="49.13217" lon="1.87684">
        <ele>111</ele>
        <time>2023-01-10T14:06:22Z</time>
      </trkpt>
      <trkpt lat="49.13492" lon="1.87422">
        <ele>113</ele>
        <time>2023-01-10T14:13:35Z</time>
      </trkpt>
      <trkpt lat="49.13029" lon="1.86744">
        <ele>122</ele>
        <time>2023-01-10T14:27:51Z</time>
      </trkpt>
      <trkpt lat="49.12913" lon="1.86568">
        <ele>121</ele>
        <time>2023-01-10T14:31:29Z</time>
      </trkpt>
      <trkpt lat="49.12829" lon="1.86456">
        <ele>121</ele>
        <time>2023-01-10T14:33:57Z</time>
      </trkpt>
      <trkpt lat="49.12714" lon="1.86349">
        <ele>124</ele>
        <time>2023-01-10T14:36:57Z</time>
      </trkpt>
      <trkpt lat="49.12579" lon="1.86216">
        <ele>128</ele>
        <time>2023-01-10T14:40:31Z</time>
      </trkpt>
      <trkpt lat="49.12433" lon="1.8607">
        <ele>130</ele>
        <time>2023-01-10T14:44:24Z</time>
      </trkpt>
      <trkpt lat="49.12385" lon="1.86027">
        <ele>132</ele>
        <time>2023-01-10T14:45:39Z</time>
      </trkpt>
      <trkpt lat="49.12107" lon="1.8586">
        <ele>139</ele>
        <time>2023-01-10T14:52:17Z</time>
      </trkpt>
      <trkpt lat="49.11928" lon="1.85766">
        <ele>141</ele>
        <time>2023-01-10T14:56:30Z</time>
      </trkpt>
      <trkpt lat="49.11874" lon="1.8571">
        <ele>141</ele>
        <time>2023-01-10T14:57:57Z</time>
      </trkpt>
      <trkpt lat="49.11709" lon="1.85521">
        <ele>141</ele>
        <time>2023-01-10T15:02:32Z</time>
      </trkpt>
      <trkpt lat="49.11546" lon="1.85354">
        <ele>141</ele>
        <time>2023-01-10T15:06:54Z</time>
      </trkpt>
      <trkpt lat="49.11385" lon="1.8522">
        <ele>137</ele>
        <time>2023-01-10T15:10:59Z</time>
      </trkpt>
      <trkpt lat="49.11312" lon="1.85169">
        <ele>136</ele>
        <time>2023-01-10T15:12:46Z</time>
      </trkpt>
      <trkpt lat="49.11242" lon="1.85126">
        <ele>130</ele>
        <time>2023-01-10T15:14:26Z</time>
      </trkpt>
      <trkpt lat="49.1115" lon="1.85087">
        <ele>119</ele>
        <time>2023-01-10T15:16:34Z</time>
      </trkpt>
      <trkpt lat="49.10992" lon="1.85152">
        <ele>105</ele>
        <time>2023-01-10T15:20:12Z</time>
      </trkpt>
      <trkpt lat="49.10978" lon="1.8522">
        <ele>108</ele>
        <time>2023-01-10T15:21:14Z</time>
      </trkpt>
      <trkpt lat="49.10989" lon="1.85375">
        <ele>117</ele>
        <time>2023-01-10T15:23:31Z</time>
      </trkpt>
      <trkpt lat="49.10978" lon="1.85555">
        <ele>117</ele>
        <time>2023-01-10T15:26:09Z</time>
      </trkpt>
      <trkpt lat="49.11124" lon="1.86006">
        <ele>132</ele>
        <time>2023-01-10T15:33:28Z</time>
      </trkpt>
      <trkpt lat="49.11071" lon="1.86083">
        <ele>132</ele>
        <time>2023-01-10T15:35:06Z</time>
      </trkpt>
      <trkpt lat="49.11009" lon="1.86049">
        <ele>130</ele>
        <time>2023-01-10T15:36:34Z</time>
      </trkpt>
      <trkpt lat="49.10939" lon="1.8607">
        <ele>133</ele>
        <time>2023-01-10T15:38:09Z</time>
      </trkpt>
      <trkpt lat="49.10902" lon="1.86017">
        <ele>133</ele>
        <time>2023-01-10T15:39:16Z</time>
      </trkpt>
      <trkpt lat="49.10845" lon="1.8597">
        <ele>132</ele>
        <time>2023-01-10T15:40:43Z</time>
      </trkpt>
      <trkpt lat="49.1076" lon="1.8592">
        <ele>129</ele>
        <time>2023-01-10T15:42:44Z</time>
      </trkpt>
      <trkpt lat="49.1072" lon="1.85884">
        <ele>123</ele>
        <time>2023-01-10T15:43:46Z</time>
      </trkpt>
      <trkpt lat="49.10739" lon="1.85797">
        <ele>118</ele>
        <time>2023-01-10T15:45:07Z</time>
      </trkpt>
      <trkpt lat="49.10807" lon="1.85725">
        <ele>109</ele>
        <time>2023-01-10T15:46:57Z</time>
      </trkpt>
      <trkpt lat="49.10727" lon="1.85656">
        <ele>109</ele>
        <time>2023-01-10T15:49:00Z</time>
      </trkpt>
      <trkpt lat="49.10673" lon="1.85656">
        <ele>107</ele>
        <time>2023-01-10T15:50:12Z</time>
      </trkpt>
      <trkpt lat="49.10526" lon="1.85555">
        <ele>91</ele>
        <time>2023-01-10T15:53:47Z</time>
      </trkpt>
      <trkpt lat="49.10351" lon="1.85898">
        <ele>92</ele>
        <time>2023-01-10T16:00:07Z</time>
      </trkpt>
      <trkpt lat="49.10224" lon="1.85786">
        <ele>92</ele>
        <time>2023-01-10T16:03:22Z</time>
      </trkpt>
      <trkpt lat="49.10176" lon="1.85721">
        <ele>95</ele>
        <time>2023-01-10T16:04:48Z</time>
      </trkpt>
      <trkpt lat="49.10127" lon="1.85685">
        <ele>99</ele>
        <time>2023-01-10T16:06:00Z</time>
      </trkpt>
      <trkpt lat="49.1012" lon="1.85635">
        <ele>100</ele>
        <time>2023-01-10T16:06:45Z</time>
      </trkpt>
      <trkpt lat="49.1007" lon="1.85599">
        <ele>106</ele>
        <time>2023-01-10T16:07:59Z</time>
      </trkpt>
      <trkpt lat="49.10028" lon="1.85595">
        <ele>113</ele>
        <time>2023-01-10T16:08:55Z</time>
      </trkpt>
      <trkpt lat="49.0995" lon="1.857">
        <ele>117</ele>
        <time>2023-01-10T16:11:14Z</time>
      </trkpt>
      <trkpt lat="49.099" lon="1.85754">
        <ele>117</ele>
        <time>2023-01-10T16:12:36Z</time>
      </trkpt>
      <trkpt lat="49.0981" lon="1.85786">
        <ele>124</ele>
        <time>2023-01-10T16:14:39Z</time>
      </trkpt>
      <trkpt lat="49.09701" lon="1.85793">
        <ele>128</ele>
        <time>2023-01-10T16:17:04Z</time>
      </trkpt>
      <trkpt lat="49.09661" lon="1.85714">
        <ele>129</ele>
        <time>2023-01-10T16:18:32Z</time>
      </trkpt>
      <trkpt lat="49.09593" lon="1.85595">
        <ele>127</ele>
        <time>2023-01-10T16:20:50Z</time>
      </trkpt>
      <trkpt lat="49.09463" lon="1.85963">
        <ele>130</ele>
        <time>2023-01-10T16:26:55Z</time>
      </trkpt>
      <trkpt lat="49.09472" lon="1.86046">
        <ele>133</ele>
        <time>2023-01-10T16:28:09Z</time>
      </trkpt>
      <trkpt lat="49.09472" lon="1.86194">
        <ele>132</ele>
        <time>2023-01-10T16:30:18Z</time>
      </trkpt>
      <trkpt lat="49.09434" lon="1.8632">
        <ele>133</ele>
        <time>2023-01-10T16:32:19Z</time>
      </trkpt>
      <trkpt lat="49.09411" lon="1.8641">
        <ele>130</ele>
        <time>2023-01-10T16:33:44Z</time>
      </trkpt>
      <trkpt lat="49.09375" lon="1.8653">
        <ele>129</ele>
        <time>2023-01-10T16:35:39Z</time>
      </trkpt>
      <trkpt lat="49.09366" lon="1.86656">
        <ele>128</ele>
        <time>2023-01-10T16:37:30Z</time>
      </trkpt>
      <trkpt lat="49.09364" lon="1.86789">
        <ele>122</ele>
        <time>2023-01-10T16:39:26Z</time>
      </trkpt>
      <trkpt lat="49.0939" lon="1.86919">
        <ele>107</ele>
        <time>2023-01-10T16:41:25Z</time>
      </trkpt>
      <trkpt lat="49.09319" lon="1.87197">
        <ele>97</ele>
        <time>2023-01-10T16:45:45Z</time>
      </trkpt>
      <trkpt lat="49.093" lon="1.87371">
        <ele>96</ele>
        <time>2023-01-10T16:48:20Z</time>
      </trkpt>
      <trkpt lat="49.09268" lon="1.87577">
        <ele>94</ele>
        <time>2023-01-10T16:51:25Z</time>
      </trkpt>
      <trkpt lat="49.09151" lon="1.87929">
        <ele>94</ele>
        <time>2023-01-10T16:57:10Z</time>
      </trkpt>
      <trkpt lat="49.09064" lon="1.88189">
        <ele>91</ele>
        <time>2023-01-10T17:01:25Z</time>
      </trkpt>
      <trkpt lat="49.09" lon="1.88383">
        <ele>89</ele>
        <time>2023-01-10T17:04:35Z</time>
      </trkpt>
      <trkpt lat="49.08944" lon="1.88638">
        <ele>86</ele>
        <time>2023-01-10T17:08:30Z</time>
      </trkpt>
      <trkpt lat="49.08914" lon="1.88908">
        <ele>85</ele>
        <time>2023-01-10T17:12:29Z</time>
      </trkpt>
      <trkpt lat="49.0884" lon="1.89118">
        <ele>86</ele>
        <time>2023-01-10T17:15:57Z</time>
      </trkpt>
      <trkpt lat="49.08706" lon="1.89378">
        <ele>85</ele>
        <time>2023-01-10T17:20:46Z</time>
      </trkpt>
      <trkpt lat="49.08688" lon="1.89468">
        <ele>83</ele>
        <time>2023-01-10T17:22:09Z</time>
      </trkpt>
      <trkpt lat="49.08673" lon="1.89542">
        <ele>81</ele>
        <time>2023-01-10T17:23:16Z</time>
      </trkpt>
      <trkpt lat="49.08659" lon="1.89686">
        <ele>78</ele>
        <time>2023-01-10T17:25:24Z</time>
      </trkpt>
      <trkpt lat="49.08606" lon="1.89685">
        <ele>77</ele>
        <time>2023-01-10T17:26:34Z</time>
      </trkpt>
      <trkpt lat="49.08553" lon="1.89661">
        <ele>78</ele>
        <time>2023-01-10T17:27:48Z</time>
      </trkpt>
      <trkpt lat="49.08532" lon="1.89681">
        <ele>78</ele>
        <time>2023-01-10T17:28:21Z</time>
      </trkpt>
      <trkpt lat="49.0849" lon="1.89782">
        <ele>77</ele>
        <time>2023-01-10T17:30:06Z</time>
      </trkpt>
      <trkpt lat="49.08451" lon="1.89758">
        <ele>77</ele>
        <time>2023-01-10T17:31:02Z</time>
      </trkpt>
      <trkpt lat="49.08429" lon="1.89753">
        <ele>77</ele>
        <time>2023-01-10T17:31:32Z</time>
      </trkpt>
      <trkpt lat="49.08411" lon="1.89827">
        <ele>74</ele>
        <time>2023-01-10T17:32:41Z</time>
      </trkpt>
      <trkpt lat="49.08398" lon="1.89905">
        <ele>74</ele>
        <time>2023-01-10T17:33:51Z</time>
      </trkpt>
      <trkpt lat="49.08371" lon="1.9002">
        <ele>74</ele>
        <time>2023-01-10T17:35:38Z</time>
      </trkpt>
      <trkpt lat="49.08337" lon="1.90148">
        <ele>73</ele>
        <time>2023-01-10T17:37:38Z</time>
      </trkpt>
      <trkpt lat="49.08263" lon="1.90395">
        <ele>74</ele>
        <time>2023-01-10T17:41:36Z</time>
      </trkpt>
      <trkpt lat="49.08196" lon="1.90621">
        <ele>74</ele>
        <time>2023-01-10T17:45:13Z</time>
      </trkpt>
      <trkpt lat="49.08149" lon="1.90771">
        <ele>73</ele>
        <time>2023-01-10T17:47:38Z</time>
      </trkpt>
      <trkpt lat="49.08097" lon="1.90901">
        <ele>71</ele>
        <time>2023-01-10T17:49:51Z</time>
      </trkpt>
      <trkpt lat="49.08067" lon="1.90975">
        <ele>70</ele>
        <time>2023-01-10T17:51:07Z</time>
      </trkpt>
      <trkpt lat="49.08036" lon="1.91025">
        <ele>70</ele>
        <time>2023-01-10T17:52:07Z</time>
      </trkpt>
      <trkpt lat="49.07981" lon="1.91101">
        <ele>69</ele>
        <time>2023-01-10T17:53:46Z</time>
      </trkpt>
      <trkpt lat="49.07889" lon="1.91204">
        <ele>68</ele>
        <time>2023-01-10T17:56:19Z</time>
      </trkpt>
      <trkpt lat="49.07778" lon="1.91294">
        <ele>67</ele>
        <time>2023-01-10T17:59:06Z</time>
      </trkpt>
      <trkpt lat="49.07714" lon="1.91361">
        <ele>68</ele>
        <time>2023-01-10T18:00:50Z</time>
      </trkpt>
      <trkpt lat="49.07684" lon="1.91408">
        <ele>68</ele>
        <time>2023-01-10T18:01:47Z</time>
      </trkpt>
      <trkpt lat="49.07665" lon="1.91451">
        <ele>68</ele>
        <time>2023-01-10T18:02:33Z</time>
      </trkpt>
      <trkpt lat="49.07603" lon="1.91644">
        <ele>70</ele>
        <time>2023-01-10T18:05:40Z</time>
      </trkpt>
      <trkpt lat="49.07565" lon="1.91763">
        <ele>72</ele>
        <time>2023-01-10T18:07:36Z</time>
      </trkpt>
      <trkpt lat="49.07521" lon="1.91862">
        <ele>74</ele>
        <time>2023-01-10T18:09:21Z</time>
      </trkpt>
      <trkpt lat="49.0748" lon="1.91976">
        <ele>78</ele>
        <time>2023-01-10T18:11:14Z</time>
      </trkpt>
      <trkpt lat="49.07339" lon="1.92566">
        <ele>69</ele>
        <time>2023-01-10T18:20:23Z</time>
      </trkpt>
      <trkpt lat="49.07259" lon="1.92658">
        <ele>64</ele>
        <time>2023-01-10T18:22:37Z</time>
      </trkpt>
      <trkpt lat="49.07172" lon="1.92774">
        <ele>61</ele>
        <time>2023-01-10T18:25:11Z</time>
      </trkpt>
      <trkpt lat="49.07006" lon="1.9295">
        <ele>75</ele>
        <time>2023-01-10T18:29:41Z</time>
      </trkpt>
      <trkpt lat="49.06938" lon="1.93028">
        <ele>79</ele>
        <time>2023-01-10T18:31:35Z</time>
      </trkpt>
      <trkpt lat="49.06863" lon="1.931">
        <ele>86</ele>
        <time>2023-01-10T18:33:33Z</time>
      </trkpt>
      <trkpt lat="49.06812" lon="1.9316">
        <ele>89</ele>
        <time>2023-01-10T18:34:59Z</time>
      </trkpt>
      <trkpt lat="49.0678" lon="1.93214">
        <ele>88</ele>
        <time>2023-01-10T18:36:02Z</time>
      </trkpt>
      <trkpt lat="49.06736" lon="1.93281">
        <ele>84</ele>
        <time>2023-01-10T18:37:25Z</time>
      </trkpt>
      <trkpt lat="49.06708" lon="1.93319">
        <ele>80</ele>
        <time>2023-01-10T18:38:15Z</time>
      </trkpt>
      <trkpt lat="49.06632" lon="1.93362">
        <ele>72</ele>
        <time>2023-01-10T18:40:03Z</time>
      </trkpt>
      <trkpt lat="49.06562" lon="1.93382">
        <ele>67</ele>
        <time>2023-01-10T18:41:38Z</time>
      </trkpt>
      <trkpt lat="49.06509" lon="1.93402">
        <ele>63</ele>
        <time>2023-01-10T18:42:51Z</time>
      </trkpt>
      <trkpt lat="49.06493" lon="1.93405">
        <ele>62</ele>
        <time>2023-01-10T18:43:13Z</time>
      </trkpt>
      <trkpt lat="49.06458" lon="1.93392">
        <ele>59</ele>
        <time>2023-01-10T18:44:01Z</time>
      </trkpt>
      <trkpt lat="49.06442" lon="1.93396">
        <ele>58</ele>
        <time>2023-01-10T18:44:23Z</time>
      </trkpt>
      <trkpt lat="49.06423" lon="1.93429">
        <ele>57</ele>
        <time>2023-01-10T18:45:01Z</time>
      </trkpt>
      <trkpt lat="49.06405" lon="1.93445">
        <ele>56</ele>
        <time>2023-01-10T18:45:29Z</time>
      </trkpt>
      <trkpt lat="49.06373" lon="1.93436">
        <ele>55</ele>
        <time>2023-01-10T18:46:12Z</time>
      </trkpt>
      <trkpt lat="49.06337" lon="1.93457">
        <ele>55</ele>
        <time>2023-01-10T18:47:04Z</time>
      </trkpt>
      <trkpt lat="49.06317" lon="1.93504">
        <ele>58</ele>
        <time>2023-01-10T18:47:53Z</time>
      </trkpt>
      <trkpt lat="49.06126" lon="1.93441">
        <ele>56</ele>
        <time>2023-01-10T18:52:13Z</time>
      </trkpt>
      <trkpt lat="49.06035" lon="1.93416">
        <ele>53</ele>
        <time>2023-01-10T18:54:17Z</time>
      </trkpt>
      <trkpt lat="49.05965" lon="1.93403">
        <ele>52</ele>
        <time>2023-01-10T18:55:51Z</time>
      </trkpt>
      <trkpt lat="49.05919" lon="1.93412">
        <ele>52</ele>
        <time>2023-01-10T18:56:53Z</time>
      </trkpt>
      <trkpt lat="49.05864" lon="1.93445">
        <ele>53</ele>
        <time>2023-01-10T18:58:12Z</time>
      </trkpt>
      <trkpt lat="49.05827" lon="1.93465">
        <ele>53</ele>
        <time>2023-01-10T18:59:04Z</time>
      </trkpt>
      <trkpt lat="49.05763" lon="1.93512">
        <ele>52</ele>
        <time>2023-01-10T19:00:39Z</time>
      </trkpt>
      <trkpt lat="49.05644" lon="1.93634">
        <ele>51</ele>
        <time>2023-01-10T19:03:50Z</time>
      </trkpt>
      <trkpt lat="49.0556" lon="1.93761">
        <ele>50</ele>
        <time>2023-01-10T19:06:28Z</time>
      </trkpt>
      <trkpt lat="49.05527" lon="1.9382">
        <ele>50</ele>
        <time>2023-01-10T19:07:36Z</time>
      </trkpt>
      <trkpt lat="49.05474" lon="1.93959">
        <ele>47</ele>
        <time>2023-01-10T19:09:56Z</time>
      </trkpt>
      <trkpt lat="49.05422" lon="1.94075">
        <ele>48</ele>
        <time>2023-01-10T19:11:59Z</time>
      </trkpt>
      <trkpt lat="49.05406" lon="1.94154">
        <ele>49</ele>
        <time>2023-01-10T19:13:12Z</time>
      </trkpt>
      <trkpt lat="49.05383" lon="1.94275">
        <ele>49</ele>
        <time>2023-01-10T19:15:02Z</time>
      </trkpt>
      <trkpt lat="49.0536" lon="1.94394">
        <ele>49</ele>
        <time>2023-01-10T19:16:50Z</time>
      </trkpt>
      <trkpt lat="49.05333" lon="1.94462">
        <ele>48</ele>
        <time>2023-01-10T19:18:00Z</time>
      </trkpt>
      <trkpt lat="49.05262" lon="1.94594">
        <ele>50</ele>
        <time>2023-01-10T19:20:29Z</time>
      </trkpt>
      <trkpt lat="49.05229" lon="1.94675">
        <ele>50</ele>
        <time>2023-01-10T19:21:53Z</time>
      </trkpt>
      <trkpt lat="49.05198" lon="1.9472">
        <ele>49</ele>
        <time>2023-01-10T19:22:50Z</time>
      </trkpt>
      <trkpt lat="49.05145" lon="1.94776">
        <ele>46</ele>
        <time>2023-01-10T19:24:16Z</time>
      </trkpt>
      <trkpt lat="49.05081" lon="1.94883">
        <ele>46</ele>
        <time>2023-01-10T19:26:22Z</time>
      </trkpt>
      <trkpt lat="49.05025" lon="1.94809">
        <ele>48</ele>
        <time>2023-01-10T19:28:01Z</time>
      </trkpt>
      <trkpt lat="49.04967" lon="1.94701">
        <ele>50</ele>
        <time>2023-01-10T19:30:03Z</time>
      </trkpt>
      <trkpt lat="49.04936" lon="1.9469">
        <ele>50</ele>
        <time>2023-01-10T19:30:46Z</time>
      </trkpt>
      <trkpt lat="49.04873" lon="1.94708">
        <ele>47</ele>
        <time>2023-01-10T19:32:11Z</time>
      </trkpt>
      <trkpt lat="49.04835" lon="1.9471">
        <ele>44</ele>
        <time>2023-01-10T19:33:02Z</time>
      </trkpt>
      <trkpt lat="49.04783" lon="1.94686">
        <ele>45</ele>
        <time>2023-01-10T19:34:15Z</time>
      </trkpt>
      <trkpt lat="49.04771" lon="1.94235">
        <ele>51</ele>
        <time>2023-01-10T19:40:49Z</time>
      </trkpt>
      <trkpt lat="49.04714" lon="1.94264">
        <ele>50</ele>
        <time>2023-01-10T19:42:10Z</time>
      </trkpt>
      <trkpt lat="49.04642" lon="1.94315">
        <ele>49</ele>
        <time>2023-01-10T19:43:55Z</time>
      </trkpt>
      <trkpt lat="49.04581" lon="1.94331">
        <ele>48</ele>
        <time>2023-01-10T19:45:18Z</time>
      </trkpt>
      <trkpt lat="49.04517" lon="1.94333">
        <ele>48</ele>
        <time>2023-01-10T19:46:44Z</time>
      </trkpt>
      <trkpt lat="49.04459" lon="1.94324">
        <ele>48</ele>
        <time>2023-01-10T19:48:01Z</time>
      </trkpt>
      <trkpt lat="49.04384" lon="1.94293">
        <ele>48</ele>
        <time>2023-01-10T19:49:45Z</time>
      </trkpt>
      <trkpt lat="49.04303" lon="1.94266">
        <ele>46</ele>
        <time>2023-01-10T19:51:36Z</time>
      </trkpt>
      <trkpt lat="49.04214" lon="1.94282">
        <ele>47</ele>
        <time>2023-01-10T19:53:35Z</time>
      </trkpt>
      <trkpt lat="49.04149" lon="1.94271">
        <ele>46</ele>
        <time>2023-01-10T19:55:03Z</time>
      </trkpt>
      <trkpt lat="49.04088" lon="1.94179">
        <ele>49</ele>
        <time>2023-01-10T19:56:57Z</time>
      </trkpt>
      <trkpt lat="49.04043" lon="1.94111">
        <ele>51</ele>
        <time>2023-01-10T19:58:21Z</time>
      </trkpt>
      <trkpt lat="49.03996" lon="1.94127">
        <ele>49</ele>
        <time>2023-01-10T19:59:26Z</time>
      </trkpt>
      <trkpt lat="49.03975" lon="1.9421">
        <ele>45</ele>
        <time>2023-01-10T20:00:44Z</time>
      </trkpt>
      <trkpt lat="49.04009" lon="1.94271">
        <ele>43</ele>
        <time>2023-01-10T20:01:54Z</time>
      </trkpt>
    </trkseg>
  </trk>
</gpx>